Time;durP1;ratioP1;P1;durP2;ratioP2;P2;SDS_P1;SDS_P2;PMS_P1;PMS_P2;Temp;Humidity;BMP_temperature;BMP_pressure;BME280_temperature;BME280_humidity;BME280_pressure;Samples;Min_cycle;Max_cycle;Signal;HPM_P1;HPM_P2
2022/11/29 00:00:26;;;;;;;6.18;2.30;;;;;;;;;;5028752;28;20058;-85
2022/11/29 00:02:53;;;;;;;4.68;2.25;;;;;;;;;;5013198;28;20082;-86
2022/11/29 00:05:19;;;;;;;6.70;2.45;;;;;;;;;;5010663;28;20044;-86
2022/11/29 00:07:56;;;;;;;4.32;2.10;;;;;;;;;;5012678;28;20053;-86
2022/11/29 00:10:25;;;;;;;5.95;2.92;;;;;;;;;;5013184;28;20668;-86
2022/11/29 00:12:54;;;;;;;5.32;1.98;;;;;;;;;;5011748;28;20534;-86
2022/11/29 00:15:24;;;;;;;6.28;3.28;;;;;;;;;;5029399;28;20042;-86
2022/11/29 00:17:50;;;;;;;11.23;2.42;;;;;;;;;;5013140;28;20116;-85
2022/11/29 00:20:16;;;;;;;7.00;3.40;;;;;;;;;;5012834;28;20056;-83
2022/11/29 00:22:50;;;;;;;12.80;3.25;;;;;;;;;;5012133;28;20049;-85
2022/11/29 00:25:28;;;;;;;7.88;2.63;;;;;;;;;;5011505;28;20068;-82
2022/11/29 00:28:00;;;;;;;7.30;2.65;;;;;;;;;;5012722;28;20060;-83
2022/11/29 00:30:28;;;;;;;10.60;4.03;;;;;;;;;;5008898;28;20061;-82
2022/11/29 00:33:01;;;;;;;13.63;2.55;;;;;;;;;;5026886;28;20038;-83
2022/11/29 00:35:32;;;;;;;6.22;2.60;;;;;;;;;;5027453;28;20436;-83
2022/11/29 00:38:04;;;;;;;5.25;2.67;;;;;;;;;;5018552;28;20631;-83
2022/11/29 00:40:33;;;;;;;5.93;3.28;;;;;;;;;;5010389;28;20358;-83
2022/11/29 00:43:02;;;;;;;8.82;3.72;;;;;;;;;;5028961;28;20044;-83
2022/11/29 00:45:46;;;;;;;6.78;2.90;;;;;;;;;;5011706;28;20125;-83
2022/11/29 00:48:17;;;;;;;6.10;2.65;;;;;;;;;;5019546;28;20044;-84
2022/11/29 00:50:51;;;;;;;7.53;2.47;;;;;;;;;;5009523;28;20060;-83
2022/11/29 00:53:41;;;;;;;8.10;2.90;;;;;;;;;;5011154;28;20113;-83
2022/11/29 00:56:10;;;;;;;5.93;2.45;;;;;;;;;;5011333;28;20050;-83
2022/11/29 00:58:48;;;;;;;8.57;2.97;;;;;;;;;;5005648;28;20065;-83
2022/11/29 01:04:20;;;;;;;9.05;3.40;;;;;;;;;;5009846;28;20103;-83
2022/11/29 01:07:25;;;;;;;;;;;;;;;;;;;;;
2022/11/29 01:10:02;;;;;;;8.63;2.60;;;;;;;;;;5001191;28;43915;-83
2022/11/29 01:12:34;;;;;;;9.15;2.53;;;;;;;;;;5006534;28;20783;-83
2022/11/29 01:15:08;;;;;;;12.10;4.65;;;;;;;;;;5009829;28;20080;-83
2022/11/29 01:17:45;;;;;;;10.60;2.92;;;;;;;;;;5009834;28;20050;-84
2022/11/29 01:20:20;;;;;;;10.10;3.00;;;;;;;;;;5028663;28;20499;-83
2022/11/29 01:26:03;;;;;;;3.10;1.92;;;;;;;;;;5010616;28;20519;-83
2022/11/29 01:29:03;;;;;;;50.30;6.78;;;;;;;;;;5029786;28;20048;-83
2022/11/29 01:31:39;;;;;;;7.25;2.42;;;;;;;;;;5013115;28;20065;-84
2022/11/29 01:34:21;;;;;;;;;;;;;;;;;;;;;
2022/11/29 01:37:04;;;;;;;10.43;3.13;;;;;;;;;;5012661;28;39547;-83
2022/11/29 01:39:41;;;;;;;10.45;3.70;;;;;;;;;;5010782;28;20902;-83
2022/11/29 01:42:17;;;;;;;24.85;6.28;;;;;;;;;;5022677;28;20046;-84
2022/11/29 01:45:13;;;;;;;13.55;2.95;;;;;;;;;;5011582;28;20048;-84
2022/11/29 01:47:45;;;;;;;5.72;2.10;;;;;;;;;;5023599;28;20050;-83
2022/11/29 01:50:17;;;;;;;7.82;4.07;;;;;;;;;;5025165;28;20109;-84
2022/11/29 01:53:06;;;;;;;16.67;3.40;;;;;;;;;;5024695;28;20092;-83
2022/11/29 01:55:42;;;;;;;11.52;3.10;;;;;;;;;;5023742;28;20049;-83
2022/11/29 01:58:28;;;;;;;8.60;4.28;;;;;;;;;;5030051;28;20753;-83
2022/11/29 02:01:01;;;;;;;8.40;2.60;;;;;;;;;;5012286;28;20549;-84
2022/11/29 02:03:47;;;;;;;7.28;2.80;;;;;;;;;;5011377;28;20487;-83
2022/11/29 02:06:21;;;;;;;7.15;2.55;;;;;;;;;;5012634;28;20057;-84
2022/11/29 02:09:01;;;;;;;13.30;2.38;;;;;;;;;;5025985;28;20042;-84
2022/11/29 02:11:56;;;;;;;13.82;3.35;;;;;;;;;;5011859;28;20511;-84
2022/11/29 02:14:44;;;;;;;10.07;2.42;;;;;;;;;;5007746;28;20476;-84
2022/11/29 02:17:42;;;;;;;4.15;2.45;;;;;;;;;;5027793;28;20038;-84
2022/11/29 02:20:29;;;;;;;9.00;2.63;;;;;;;;;;5016495;28;20072;-87
2022/11/29 02:23:16;;;;;;;7.82;3.15;;;;;;;;;;5011469;28;20069;-86
2022/11/29 02:26:12;;;;;;;9.90;2.85;;;;;;;;;;5012471;28;20050;-86
2022/11/29 02:28:47;;;;;;;8.68;2.75;;;;;;;;;;4959792;28;20058;-86
2022/11/29 02:31:39;;;;;;;6.97;3.20;;;;;;;;;;5012555;28;20096;-85
2022/11/29 02:34:25;;;;;;;11.43;3.25;;;;;;;;;;5019057;28;20053;-86
2022/11/29 02:37:19;;;;;;;8.52;2.83;;;;;;;;;;5020941;28;20054;-86
2022/11/29 02:39:55;;;;;;;13.60;2.95;;;;;;;;;;5012892;28;20034;-85
2022/11/29 02:42:49;;;;;;;13.48;3.65;;;;;;;;;;5029442;28;20069;-85
2022/11/29 02:45:36;;;;;;;8.70;1.77;;;;;;;;;;5030552;28;20101;-85
2022/11/29 02:48:17;;;;;;;7.55;3.15;;;;;;;;;;5030772;28;20049;-86
2022/11/29 02:50:50;;;;;;;10.02;2.85;;;;;;;;;;5013014;28;20434;-86
2022/11/29 02:53:35;;;;;;;8.98;2.50;;;;;;;;;;5011692;28;20052;-86
2022/11/29 02:56:25;;;;;;;7.97;2.65;;;;;;;;;;5011385;28;20092;-86
2022/11/29 02:59:03;;;;;;;6.97;3.05;;;;;;;;;;5009119;28;20089;-86
2022/11/29 03:01:33;;;;;;;9.43;3.03;;;;;;;;;;5008104;28;20476;-85
2022/11/29 03:04:06;;;;;;;6.15;2.85;;;;;;;;;;5011716;28;20593;-86
2022/11/29 03:06:43;;;;;;;10.55;2.90;;;;;;;;;;5015000;28;20038;-86
2022/11/29 03:09:35;;;;;;;8.50;2.65;;;;;;;;;;5027881;28;20062;-86
2022/11/29 03:12:26;;;;;;;7.38;3.13;;;;;;;;;;5013775;28;20046;-85
2022/11/29 03:15:16;;;;;;;6.78;2.38;;;;;;;;;;5011528;28;20037;-85
2022/11/29 03:18:06;;;;;;;7.47;2.88;;;;;;;;;;5029374;28;20058;-86
2022/11/29 03:21:05;;;;;;;8.02;3.40;;;;;;;;;;5012527;28;20057;-86
2022/11/29 03:23:39;;;;;;;8.10;2.38;;;;;;;;;;4994160;28;20042;-86
2022/11/29 03:26:05;;;;;;;11.70;2.72;;;;;;;;;;5016405;28;20042;-86
2022/11/29 03:28:44;;;;;;;15.15;4.15;;;;;;;;;;5015734;28;20420;-86
2022/11/29 03:31:18;;;;;;;14.40;3.13;;;;;;;;;;5010118;28;20192;-86
2022/11/29 03:33:45;;;;;;;6.18;2.63;;;;;;;;;;5010507;28;20057;-85
2022/11/29 03:36:24;;;;;;;10.13;2.38;;;;;;;;;;5017243;28;20038;-85
2022/11/29 03:38:52;;;;;;;7.55;2.63;;;;;;;;;;5015055;28;20041;-86
2022/11/29 03:41:39;;;;;;;6.80;2.47;;;;;;;;;;5019317;28;20456;-85
2022/11/29 03:44:37;;;;;;;6.53;2.63;;;;;;;;;;5035205;28;20520;-85
2022/11/29 03:47:17;;;;;;;;;;;;;;;;;;;;;
2022/11/29 03:50:10;;;;;;;8.98;3.42;;;;;;;;;;5016910;28;39988;-85
2022/11/29 03:56:25;;;;;;;;;;;;;;;;;;;;;
2022/11/29 03:59:14;;;;;;;11.45;3.67;;;;;;;;;;5013858;28;41051;-85
2022/11/29 04:02:16;;;;;;;9.90;4.35;;;;;;;;;;5015293;28;20050;-86
2022/11/29 04:05:10;;;;;;;7.28;3.38;;;;;;;;;;5015254;28;20206;-86
2022/11/29 04:08:04;;;;;;;6.80;3.25;;;;;;;;;;4997048;28;20732;-86
2022/11/29 04:10:56;;;;;;;7.18;3.80;;;;;;;;;;5014394;28;20050;-86
2022/11/29 04:13:46;;;;;;;8.23;2.95;;;;;;;;;;5014791;28;20049;-86
2022/11/29 04:16:30;;;;;;;4.97;2.70;;;;;;;;;;5011765;28;20080;-86
2022/11/29 04:19:18;;;;;;;10.40;2.80;;;;;;;;;;5013209;28;20038;-86
2022/11/29 04:22:27;;;;;;;;;;;;;;;;;;;;;
2022/11/29 04:25:13;;;;;;;6.82;2.45;;;;;;;;;;4997721;28;39847;-86
2022/11/29 04:28:12;;;;;;;3.20;2.35;;;;;;;;;;4997569;28;20047;-86
2022/11/29 04:30:56;;;;;;;6.03;2.75;;;;;;;;;;4993312;28;21214;-86
2022/11/29 04:33:43;;;;;;;8.73;2.55;;;;;;;;;;4997339;28;20048;-86
2022/11/29 04:36:26;;;;;;;4.82;2.38;;;;;;;;;;4996730;28;20078;-86
2022/11/29 04:39:26;;;;;;;12.10;2.60;;;;;;;;;;5015296;28;20053;-86
2022/11/29 04:42:15;;;;;;;4.50;2.08;;;;;;;;;;4991010;28;20072;-86
2022/11/29 04:45:02;;;;;;;4.30;2.92;;;;;;;;;;4997491;28;20046;-86
2022/11/29 04:47:31;;;;;;;5.85;3.40;;;;;;;;;;4993412;28;20656;-86
2022/11/29 04:50:09;;;;;;;3.15;2.08;;;;;;;;;;4996907;28;20192;-86
2022/11/29 04:52:53;;;;;;;12.43;2.78;;;;;;;;;;4995247;28;20070;-86
2022/11/29 04:55:38;;;;;;;5.18;1.98;;;;;;;;;;4995694;28;20052;-86
2022/11/29 04:58:32;;;;;;;7.53;3.58;;;;;;;;;;5013097;28;20461;-86
2022/11/29 05:01:07;;;;;;;4.00;2.05;;;;;;;;;;5012171;28;20054;-86
2022/11/29 05:03:48;;;;;;;5.75;2.28;;;;;;;;;;5016495;28;20121;-86
2022/11/29 05:06:23;;;;;;;5.82;3.28;;;;;;;;;;5020431;28;20132;-87
2022/11/29 05:09:00;;;;;;;2.92;1.80;;;;;;;;;;5011857;28;20104;-85
2022/11/29 05:11:46;;;;;;;10.07;2.65;;;;;;;;;;5032271;28;20060;-86
2022/11/29 05:14:19;;;;;;;5.38;2.33;;;;;;;;;;5028441;28;20049;-86
2022/11/29 05:16:53;;;;;;;5.65;2.30;;;;;;;;;;5032181;28;20087;-85
2022/11/29 05:19:36;;;;;;;2.78;1.58;;;;;;;;;;5033287;28;20046;-86
2022/11/29 05:22:21;;;;;;;3.80;1.85;;;;;;;;;;5023315;28;21025;-86
2022/11/29 05:24:47;;;;;;;4.22;1.83;;;;;;;;;;5036806;28;21026;-86
2022/11/29 05:27:36;;;;;;;8.82;2.45;;;;;;;;;;5033630;28;20042;-82
2022/11/29 05:30:21;;;;;;;5.45;2.35;;;;;;;;;;5016977;28;20105;-83
2022/11/29 05:36:13;;;;;;;7.00;2.55;;;;;;;;;;5032886;28;20958;-82
2022/11/29 05:38:55;;;;;;;;;;;;;;;;;;;;;
2022/11/29 05:41:43;;;;;;;5.68;2.70;;;;;;;;;;5040810;28;39156;-85
2022/11/29 05:44:24;;;;;;;5.32;2.17;;;;;;;;;;5026810;28;20050;-84
2022/11/29 05:49:51;;;;;;;4.70;2.00;;;;;;;;;;5041532;28;20037;-85
2022/11/29 05:52:33;;;;;;;6.90;2.53;;;;;;;;;;5038232;28;20101;-84
2022/11/29 05:55:17;;;;;;;8.77;3.85;;;;;;;;;;5011312;28;20046;-84
2022/11/29 05:57:56;;;;;;;6.22;2.08;;;;;;;;;;4992257;28;20046;-82
2022/11/29 06:00:29;;;;;;;5.22;2.20;;;;;;;;;;5007523;28;20069;-84
2022/11/29 06:02:59;;;;;;;5.70;1.77;;;;;;;;;;4991371;28;20132;-80
2022/11/29 06:05:49;;;;;;;5.00;2.47;;;;;;;;;;5004355;28;20046;-82
2022/11/29 06:08:36;;;;;;;3.67;2.22;;;;;;;;;;5004959;28;20074;-81
2022/11/29 06:11:28;;;;;;;7.03;2.38;;;;;;;;;;4988103;28;20061;-81
2022/11/29 06:14:21;;;;;;;3.20;1.95;;;;;;;;;;5004267;28;20054;-85
2022/11/29 06:16:55;;;;;;;7.63;2.60;;;;;;;;;;5005274;28;20064;-84
2022/11/29 06:19:51;;;;;;;;;;;;;;;;;;;;;
2022/11/29 06:26:00;;;;;;;6.70;3.42;;;;;;;;;;5029976;28;20046;-87
2022/11/29 06:32:10;;;;;;;5.45;2.45;;;;;;;;;;5022550;28;20867;-83
2022/11/29 06:34:58;;;;;;;9.80;2.60;;;;;;;;;;5020496;28;20555;-83
2022/11/29 06:37:29;;;;;;;9.88;3.25;;;;;;;;;;5020546;28;20041;-83
2022/11/29 06:40:05;;;;;;;9.18;3.60;;;;;;;;;;5018801;28;20057;-83
2022/11/29 06:42:37;;;;;;;5.90;2.80;;;;;;;;;;5036772;28;20101;-83
2022/11/29 06:45:11;;;;;;;5.22;2.60;;;;;;;;;;5018600;28;20034;-83
2022/11/29 06:47:46;;;;;;;4.45;2.35;;;;;;;;;;5019761;28;20054;-83
2022/11/29 06:50:33;;;;;;;5.45;3.33;;;;;;;;;;5018945;28;20042;-83
2022/11/29 06:53:26;;;;;;;9.38;3.38;;;;;;;;;;5017270;28;20038;-83
2022/11/29 06:56:07;;;;;;;4.13;2.83;;;;;;;;;;5033369;28;20583;-82
2022/11/29 06:58:33;;;;;;;10.15;4.53;;;;;;;;;;5021836;28;20057;-81
2022/11/29 07:01:18;;;;;;;4.25;2.85;;;;;;;;;;5032008;28;20112;-82
2022/11/29 07:04:03;;;;;;;7.32;3.30;;;;;;;;;;5013821;28;20057;-84
2022/11/29 07:06:32;;;;;;;5.53;2.65;;;;;;;;;;5034554;28;20046;-83
2022/11/29 07:09:00;;;;;;;4.85;2.97;;;;;;;;;;5009197;28;20099;-82
2022/11/29 07:11:26;;;;;;;7.78;3.63;;;;;;;;;;5016987;28;20046;-82
2022/11/29 07:13:53;;;;;;;5.68;2.72;;;;;;;;;;5012121;28;20129;-82
2022/11/29 07:16:25;;;;;;;7.35;3.72;;;;;;;;;;5014933;28;20042;-81
2022/11/29 07:18:51;;;;;;;10.32;2.92;;;;;;;;;;5016313;28;20049;-80
2022/11/29 07:21:17;;;;;;;8.00;3.25;;;;;;;;;;5016137;28;20060;-79
2022/11/29 07:24:12;;;;;;;7.78;3.70;;;;;;;;;;5031612;28;20046;-79
2022/11/29 07:27:01;;;;;;;6.35;3.17;;;;;;;;;;5033664;28;20047;-80
2022/11/29 07:29:55;;;;;;;5.15;3.17;;;;;;;;;;5033782;28;20042;-80
2022/11/29 07:32:54;;;;;;;6.85;4.57;;;;;;;;;;5013880;28;20054;-80
2022/11/29 07:35:55;;;;;;;4.55;3.30;;;;;;;;;;5031533;28;20125;-79
2022/11/29 07:38:28;;;;;;;8.77;3.65;;;;;;;;;;4990700;28;20053;-78
2022/11/29 07:41:07;;;;;;;5.95;3.92;;;;;;;;;;5017403;28;20038;-79
2022/11/29 07:43:44;;;;;;;8.05;4.72;;;;;;;;;;5014780;28;20136;-75
2022/11/29 07:46:13;;;;;;;10.60;3.72;;;;;;;;;;5014334;28;20085;-78
2022/11/29 07:48:54;;;;;;;9.63;5.80;;;;;;;;;;5028620;28;20510;-81
2022/11/29 07:51:23;;;;;;;6.83;4.13;;;;;;;;;;5008882;28;20628;-82
2022/11/29 07:53:49;;;;;;;8.50;4.57;;;;;;;;;;5013217;28;21204;-82
2022/11/29 07:56:15;;;;;;;9.73;5.60;;;;;;;;;;5017101;28;20524;-82
2022/11/29 07:58:42;;;;;;;10.48;5.45;;;;;;;;;;5016548;28;20590;-82
2022/11/29 08:01:08;;;;;;;23.20;8.88;;;;;;;;;;5033056;28;20033;-82
2022/11/29 08:03:34;;;;;;;22.52;8.63;;;;;;;;;;5032038;28;20053;-82
2022/11/29 08:06:01;;;;;;;13.45;6.88;;;;;;;;;;5015232;28;20526;-82
2022/11/29 08:08:27;;;;;;;8.23;5.65;;;;;;;;;;5018751;28;20050;-82
2022/11/29 08:10:53;;;;;;;15.15;5.78;;;;;;;;;;5033438;28;20046;-82
2022/11/29 08:13:20;;;;;;;13.43;6.00;;;;;;;;;;5016086;28;20050;-82
2022/11/29 08:15:46;;;;;;;10.52;6.72;;;;;;;;;;5016563;28;20041;-82
2022/11/29 08:18:13;;;;;;;8.25;5.45;;;;;;;;;;5015340;28;20042;-82
2022/11/29 08:20:40;;;;;;;6.10;4.40;;;;;;;;;;5023366;28;20463;-83
2022/11/29 08:23:07;;;;;;;10.60;4.57;;;;;;;;;;5017452;28;20046;-83
2022/11/29 08:25:33;;;;;;;7.93;4.45;;;;;;;;;;5013748;28;20520;-83
2022/11/29 08:27:59;;;;;;;12.27;5.35;;;;;;;;;;5034499;28;20400;-82
2022/11/29 08:30:26;;;;;;;10.05;4.93;;;;;;;;;;5031799;28;20523;-82
2022/11/29 08:32:52;;;;;;;7.22;4.70;;;;;;;;;;5017686;28;20508;-82
2022/11/29 08:35:19;;;;;;;9.68;4.85;;;;;;;;;;5016949;28;20149;-82
2022/11/29 08:37:45;;;;;;;13.07;4.75;;;;;;;;;;5016701;28;20038;-82
2022/11/29 08:40:14;;;;;;;6.55;4.10;;;;;;;;;;5033365;28;20160;-82
2022/11/29 08:42:44;;;;;;;9.35;4.30;;;;;;;;;;5016760;28;20052;-82
2022/11/29 08:45:13;;;;;;;11.98;5.80;;;;;;;;;;5017431;28;20089;-82
2022/11/29 08:47:41;;;;;;;11.23;4.97;;;;;;;;;;5014950;28;20137;-82
2022/11/29 08:50:18;;;;;;;11.40;4.60;;;;;;;;;;5016148;28;20030;-82
2022/11/29 08:55:34;;;;;;;14.88;5.93;;;;;;;;;;5017603;28;20627;-82
2022/11/29 08:58:01;;;;;;;11.35;5.72;;;;;;;;;;5015646;28;20045;-82
2022/11/29 09:00:28;;;;;;;16.85;6.13;;;;;;;;;;5015999;28;20049;-82
2022/11/29 09:03:58;;;;;;;10.38;5.43;;;;;;;;;;5015779;28;20076;-82
2022/11/29 09:05:50;;;;;;;14.20;7.47;;;;;;;;;;5017264;28;20046;-83
2022/11/29 09:08:16;;;;;;;8.50;5.38;;;;;;;;;;5017065;28;20104;-82
2022/11/29 09:10:48;;;;;;;18.23;5.28;;;;;;;;;;5017647;28;20072;-82
2022/11/29 09:13:17;;;;;;;9.88;4.70;;;;;;;;;;5017266;28;20045;-83
2022/11/29 09:15:46;;;;;;;13.50;6.13;;;;;;;;;;5016212;28;20049;-82
2022/11/29 09:18:12;;;;;;;13.23;5.38;;;;;;;;;;5014953;28;20120;-82
2022/11/29 09:20:46;;;;;;;7.60;4.57;;;;;;;;;;5015872;28;20192;-82
2022/11/29 09:23:12;;;;;;;10.27;4.30;;;;;;;;;;5016091;28;20046;-82
2022/11/29 09:25:38;;;;;;;8.85;3.58;;;;;;;;;;5016961;28;20520;-82
2022/11/29 09:28:05;;;;;;;10.68;4.38;;;;;;;;;;5016427;28;20038;-82
2022/11/29 09:30:32;;;;;;;13.90;4.35;;;;;;;;;;5017323;28;20050;-83
2022/11/29 09:33:03;;;;;;;10.50;3.60;;;;;;;;;;5016043;28;20042;-82
2022/11/29 09:35:32;;;;;;;8.77;4.38;;;;;;;;;;5016566;28;20042;-82
2022/11/29 09:37:58;;;;;;;6.18;3.42;;;;;;;;;;5031422;28;20149;-82
2022/11/29 09:40:30;;;;;;;10.68;3.38;;;;;;;;;;5017332;28;20124;-82
2022/11/29 09:43:02;;;;;;;10.60;4.10;;;;;;;;;;5018112;28;20038;-82
2022/11/29 09:45:38;;;;;;;10.40;4.65;;;;;;;;;;5032370;28;20069;-82
2022/11/29 09:48:20;;;;;;;9.52;3.78;;;;;;;;;;5016849;28;20148;-82
2022/11/29 09:50:47;;;;;;;15.07;6.13;;;;;;;;;;5025995;28;20049;-82
2022/11/29 09:53:13;;;;;;;21.67;5.55;;;;;;;;;;5014094;28;20053;-82
2022/11/29 09:55:48;;;;;;;12.43;3.90;;;;;;;;;;5033499;28;20053;-82
2022/11/29 09:58:19;;;;;;;9.80;4.30;;;;;;;;;;5017119;28;20064;-81
2022/11/29 10:00:48;;;;;;;13.45;4.80;;;;;;;;;;5018335;28;20528;-82
2022/11/29 10:03:18;;;;;;;14.45;4.25;;;;;;;;;;5014058;28;20046;-82
2022/11/29 10:05:46;;;;;;;12.73;3.95;;;;;;;;;;5015311;28;20077;-82
2022/11/29 10:08:24;;;;;;;14.32;4.40;;;;;;;;;;5017421;28;20042;-81
2022/11/29 10:10:53;;;;;;;14.32;4.72;;;;;;;;;;5015164;28;20555;-81
2022/11/29 10:13:25;;;;;;;14.02;5.18;;;;;;;;;;5015855;28;20528;-81
2022/11/29 10:15:54;;;;;;;12.18;4.70;;;;;;;;;;5013841;28;20045;-82
2022/11/29 10:18:20;;;;;;;16.88;5.53;;;;;;;;;;5012800;28;20058;-82
2022/11/29 10:20:48;;;;;;;17.23;4.47;;;;;;;;;;5031934;28;20146;-82
2022/11/29 10:23:14;;;;;;;12.38;4.35;;;;;;;;;;5016241;28;20049;-82
2022/11/29 10:25:47;;;;;;;8.93;4.40;;;;;;;;;;5016729;28;20522;-81
2022/11/29 10:28:15;;;;;;;10.63;5.22;;;;;;;;;;5032062;28;20569;-81
2022/11/29 10:30:42;;;;;;;13.57;5.25;;;;;;;;;;5016940;28;20503;-82
2022/11/29 10:33:20;;;;;;;14.48;5.60;;;;;;;;;;5013879;28;20468;-82
2022/11/29 10:35:47;;;;;;;13.57;6.00;;;;;;;;;;5017049;28;20559;-82
2022/11/29 10:38:14;;;;;;;22.27;5.75;;;;;;;;;;5012015;28;20057;-82
2022/11/29 10:40:42;;;;;;;18.02;5.85;;;;;;;;;;5015229;28;20125;-82
2022/11/29 10:43:08;;;;;;;19.38;6.28;;;;;;;;;;5015481;28;20049;-82
2022/11/29 10:45:37;;;;;;;13.85;6.20;;;;;;;;;;5031452;28;20045;-81
2022/11/29 10:48:10;;;;;;;19.60;7.28;;;;;;;;;;5015494;28;20048;-81
2022/11/29 10:50:36;;;;;;;15.15;6.55;;;;;;;;;;5017077;28;20038;-81
2022/11/29 10:53:07;;;;;;;17.25;6.78;;;;;;;;;;5018498;28;20077;-81
2022/11/29 10:55:56;;;;;;;12.80;5.15;;;;;;;;;;5019173;28;20566;-81
2022/11/29 10:58:24;;;;;;;17.05;6.97;;;;;;;;;;5012295;28;20049;-81
2022/11/29 11:00:55;;;;;;;15.43;6.68;;;;;;;;;;5034631;28;20145;-81
2022/11/29 11:03:30;;;;;;;10.75;5.28;;;;;;;;;;5015763;28;20057;-82
2022/11/29 11:05:59;;;;;;;10.52;6.40;;;;;;;;;;5018765;28;20084;-82
2022/11/29 11:08:26;;;;;;;17.92;6.95;;;;;;;;;;5013861;28;20045;-82
2022/11/29 11:10:54;;;;;;;11.15;7.35;;;;;;;;;;5018664;28;20046;-81
2022/11/29 11:13:22;;;;;;;13.15;7.03;;;;;;;;;;5018642;28;20056;-82
2022/11/29 11:15:48;;;;;;;14.88;8.15;;;;;;;;;;5016097;28;20515;-81
2022/11/29 11:18:22;;;;;;;14.57;7.20;;;;;;;;;;5017622;28;20077;-82
2022/11/29 11:20:59;;;;;;;16.83;7.47;;;;;;;;;;5019241;28;20054;-82
2022/11/29 11:23:32;;;;;;;13.30;6.80;;;;;;;;;;5025467;28;20046;-82
2022/11/29 11:26:00;;;;;;;10.27;5.93;;;;;;;;;;5025594;28;20666;-82
2022/11/29 11:28:27;;;;;;;11.50;6.63;;;;;;;;;;5017980;28;20041;-82
2022/11/29 11:31:02;;;;;;;9.30;4.97;;;;;;;;;;5017323;28;20176;-81
2022/11/29 11:33:30;;;;;;;10.27;6.90;;;;;;;;;;5032285;28;20476;-82
2022/11/29 11:36:02;;;;;;;9.27;4.68;;;;;;;;;;5030930;28;20512;-82
2022/11/29 11:38:28;;;;;;;;;;;;;;;;;;5017971;28;20082;-82
2022/11/29 11:41:04;;;;;;;14.18;6.85;;;;;;;;;;5033168;28;20056;-82
2022/11/29 11:43:31;;;;;;;13.15;6.28;;;;;;;;;;5018095;28;20049;-82
2022/11/29 11:45:57;;;;;;;14.25;7.15;;;;;;;;;;5032140;28;20034;-82
2022/11/29 11:48:23;;;;;;;13.75;8.13;;;;;;;;;;5017128;28;20497;-81
2022/11/29 11:50:52;;;;;;;13.60;7.60;;;;;;;;;;5019054;28;20054;-81
2022/11/29 11:53:29;;;;;;;13.70;6.43;;;;;;;;;;5008609;28;20049;-82
2022/11/29 11:56:03;;;;;;;15.07;6.75;;;;;;;;;;5017055;28;20502;-82
2022/11/29 11:58:47;;;;;;;15.50;7.85;;;;;;;;;;5032951;28;20041;-82
2022/11/29 12:01:16;;;;;;;12.32;6.60;;;;;;;;;;5015130;28;20540;-82
2022/11/29 12:03:52;;;;;;;18.67;8.27;;;;;;;;;;5032555;28;20077;-82
2022/11/29 12:06:36;;;;;;;18.67;7.03;;;;;;;;;;5017649;28;20049;-80
2022/11/29 12:09:05;;;;;;;11.57;7.25;;;;;;;;;;5017004;28;20561;-81
2022/11/29 12:11:36;;;;;;;13.27;6.28;;;;;;;;;;5015096;28;20065;-81
2022/11/29 12:14:03;;;;;;;15.43;6.75;;;;;;;;;;5034008;28;20079;-81
2022/11/29 12:16:34;;;;;;;20.20;8.18;;;;;;;;;;5016854;28;20100;-81
2022/11/29 12:19:20;;;;;;;12.90;7.10;;;;;;;;;;5017010;28;20420;-82
2022/11/29 12:21:51;;;;;;;12.23;7.28;;;;;;;;;;5016767;28;20187;-81
2022/11/29 12:24:30;;;;;;;19.92;8.27;;;;;;;;;;5033836;28;20046;-82
2022/11/29 12:26:59;;;;;;;13.43;6.63;;;;;;;;;;5017167;28;20583;-81
2022/11/29 12:29:27;;;;;;;18.98;8.27;;;;;;;;;;5018736;28;20066;-82
2022/11/29 12:31:56;;;;;;;20.27;8.40;;;;;;;;;;5017049;28;20044;-81
2022/11/29 12:34:31;;;;;;;17.25;9.13;;;;;;;;;;5015967;28;20052;-82
2022/11/29 12:37:16;;;;;;;15.57;7.38;;;;;;;;;;5025657;28;20200;-82
2022/11/29 12:39:54;;;;;;;19.40;9.25;;;;;;;;;;5033607;28;20034;-82
2022/11/29 12:42:39;;;;;;;20.52;8.77;;;;;;;;;;5034094;28;20038;-82
2022/11/29 12:45:05;;;;;;;16.88;8.85;;;;;;;;;;5017612;28;20085;-82
2022/11/29 12:47:50;;;;;;;22.27;10.15;;;;;;;;;;5018202;28;20139;-82
2022/11/29 12:50:26;;;;;;;20.65;9.15;;;;;;;;;;5010517;28;20852;-82
2022/11/29 12:53:04;;;;;;;19.50;9.13;;;;;;;;;;5018237;28;20042;-82
2022/11/29 12:55:33;;;;;;;20.25;8.35;;;;;;;;;;5016917;28;20050;-82
2022/11/29 12:58:22;;;;;;;28.45;8.85;;;;;;;;;;5017966;28;20455;-82
2022/11/29 13:01:01;;;;;;;16.13;8.20;;;;;;;;;;5035219;28;20045;-82
2022/11/29 13:03:44;;;;;;;13.30;6.13;;;;;;;;;;5031886;28;20042;-82
2022/11/29 13:06:19;;;;;;;8.65;4.88;;;;;;;;;;5016528;28;20050;-82
2022/11/29 13:08:49;;;;;;;10.63;5.22;;;;;;;;;;5017721;28;20097;-82
2022/11/29 13:11:35;;;;;;;10.75;5.55;;;;;;;;;;5016703;28;20042;-82
2022/11/29 13:14:02;;;;;;;11.60;6.47;;;;;;;;;;5018547;28;20046;-82
2022/11/29 13:16:28;;;;;;;9.77;5.55;;;;;;;;;;5017943;28;20069;-82
2022/11/29 13:19:23;;;;;;;11.45;4.45;;;;;;;;;;5018337;28;20119;-82
2022/11/29 13:21:52;;;;;;;9.95;3.92;;;;;;;;;;5002391;28;20066;-81
2022/11/29 13:24:39;;;;;;;7.82;4.05;;;;;;;;;;5018311;28;20077;-82
2022/11/29 13:27:06;;;;;;;8.77;3.90;;;;;;;;;;5017877;28;20050;-81
2022/11/29 13:29:33;;;;;;;6.68;4.40;;;;;;;;;;5016396;28;20212;-81
2022/11/29 13:31:59;;;;;;;8.93;5.20;;;;;;;;;;5016439;28;20030;-82
2022/11/29 13:34:31;;;;;;;11.75;5.68;;;;;;;;;;5032949;28;20607;-82
2022/11/29 13:37:03;;;;;;;11.90;5.05;;;;;;;;;;5033120;28;20045;-82
2022/11/29 13:39:48;;;;;;;11.27;5.15;;;;;;;;;;5018203;28;20415;-82
2022/11/29 13:42:25;;;;;;;11.43;5.30;;;;;;;;;;5015459;28;20547;-81
2022/11/29 13:45:00;;;;;;;11.52;4.72;;;;;;;;;;5018796;28;20042;-81
2022/11/29 13:47:27;;;;;;;12.25;4.43;;;;;;;;;;5032471;28;20046;-81
2022/11/29 13:49:57;;;;;;;9.02;4.20;;;;;;;;;;5007959;28;20041;-81
2022/11/29 13:52:29;;;;;;;8.75;3.80;;;;;;;;;;5018320;28;20524;-81
2022/11/29 13:55:10;;;;;;;8.57;3.83;;;;;;;;;;5017181;28;20607;-81
2022/11/29 13:57:55;;;;;;;8.00;4.63;;;;;;;;;;5016877;28;20095;-82
2022/11/29 14:00:48;;;;;;;6.10;3.72;;;;;;;;;;5014814;28;20215;-81
2022/11/29 14:03:23;;;;;;;8.90;4.95;;;;;;;;;;5013605;28;20527;-82
2022/11/29 14:05:51;;;;;;;9.80;4.55;;;;;;;;;;5032678;28;20052;-82
2022/11/29 14:08:46;;;;;;;12.10;4.72;;;;;;;;;;5016185;28;20080;-83
2022/11/29 14:11:12;;;;;;;10.00;5.57;;;;;;;;;;5010178;28;20050;-81
2022/11/29 14:13:44;;;;;;;11.57;4.97;;;;;;;;;;5015250;28;20049;-82
2022/11/29 14:16:10;;;;;;;;;;;;;;;;;;5017580;28;20136;-82
2022/11/29 14:18:36;;;;;;;8.70;4.43;;;;;;;;;;5030728;28;20391;-82
2022/11/29 14:21:03;;;;;;;7.50;3.95;;;;;;;;;;5016220;28;20072;-82
2022/11/29 14:23:34;;;;;;;10.32;5.30;;;;;;;;;;5018286;28;20065;-82
2022/11/29 14:26:00;;;;;;;14.70;6.47;;;;;;;;;;5020038;28;20622;-82
2022/11/29 14:28:39;;;;;;;56.22;24.83;;;;;;;;;;5020060;28;20046;-82
2022/11/29 14:31:06;;;;;;;10.45;5.72;;;;;;;;;;5036362;28;20154;-82
2022/11/29 14:33:38;;;;;;;11.35;4.50;;;;;;;;;;5019110;28;20038;-82
2022/11/29 14:36:04;;;;;;;;;;;;;;;;;;5020220;28;20041;-82
2022/11/29 14:38:41;;;;;;;9.32;4.10;;;;;;;;;;5027451;28;19925;-81
2022/11/29 14:41:16;;;;;;;27.27;13.38;;;;;;;;;;5017246;28;20061;-81
2022/11/29 14:44:01;;;;;;;10.85;4.78;;;;;;;;;;5016214;28;20045;-82
2022/11/29 14:46:30;;;;;;;9.90;4.35;;;;;;;;;;5019022;28;20120;-81
2022/11/29 14:48:56;;;;;;;9.55;4.20;;;;;;;;;;5024901;28;20100;-81
2022/11/29 14:51:23;;;;;;;11.75;4.93;;;;;;;;;;5016579;28;20042;-82
2022/11/29 14:54:02;;;;;;;9.75;5.57;;;;;;;;;;5019039;28;20058;-81
2022/11/29 14:56:31;;;;;;;121.72;49.88;;;;;;;;;;5018760;28;20121;-82
2022/11/29 14:59:16;;;;;;;29.73;13.13;;;;;;;;;;5011599;28;20042;-82
2022/11/29 15:01:48;;;;;;;16.52;8.80;;;;;;;;;;5019508;28;20046;-82
2022/11/29 15:04:15;;;;;;;11.85;6.35;;;;;;;;;;5017275;28;20053;-82
2022/11/29 15:06:41;;;;;;;15.20;4.78;;;;;;;;;;5018123;28;20044;-82
2022/11/29 15:09:34;;;;;;;16.63;4.22;;;;;;;;;;5016346;28;20080;-82
2022/11/29 15:12:00;;;;;;;;;;;;;;;;;;5035704;28;20038;-82
2022/11/29 15:14:26;;;;;;;12.23;5.80;;;;;;;;;;5019276;28;19925;-82
2022/11/29 15:17:46;;;;;;;;;;;;;;;;;;;;;
2022/11/29 15:20:14;;;;;;;8.02;5.25;;;;;;;;;;5010446;28;20050;-82
2022/11/29 15:44:03;;;;;;;10.65;4.93;;;;;;;;;;5016434;28;20046;-82
2022/11/29 15:46:31;;;;;;;15.52;6.03;;;;;;;;;;5016881;28;20049;-82
2022/11/29 15:49:17;;;;;;;9.80;4.75;;;;;;;;;;5016689;28;20604;-81
2022/11/29 15:51:45;;;;;;;17.75;4.63;;;;;;;;;;5018734;28;20046;-82
2022/11/29 15:54:15;;;;;;;13.82;5.80;;;;;;;;;;5017510;28;20054;-82
2022/11/29 15:56:41;;;;;;;14.25;4.97;;;;;;;;;;5018802;28;20049;-82
2022/11/29 15:59:12;;;;;;;9.98;3.55;;;;;;;;;;5017478;28;20516;-82
2022/11/29 16:01:51;;;;;;;6.40;3.20;;;;;;;;;;5016470;28;20065;-82
2022/11/29 16:04:21;;;;;;;7.18;2.78;;;;;;;;;;5015952;28;20073;-82
2022/11/29 16:06:51;;;;;;;3.45;2.38;;;;;;;;;;5018531;28;20104;-82
2022/11/29 16:09:19;;;;;;;7.65;3.53;;;;;;;;;;5018428;28;20041;-82
2022/11/29 16:11:46;;;;;;;6.35;3.00;;;;;;;;;;5018067;28;21139;-82
2022/11/29 16:14:17;;;;;;;6.82;2.97;;;;;;;;;;5016397;28;20046;-82
2022/11/29 16:16:45;;;;;;;7.72;4.03;;;;;;;;;;5018398;28;20045;-82
2022/11/29 16:19:30;;;;;;;7.30;3.63;;;;;;;;;;5017575;28;20525;-82
2022/11/29 16:22:00;;;;;;;5.93;3.97;;;;;;;;;;5017269;28;20080;-82
2022/11/29 16:24:26;;;;;;;17.40;4.45;;;;;;;;;;5016683;28;20072;-82